Time;durP1;ratioP1;P1;durP2;ratioP2;P2;SDS_P1;SDS_P2;PMS_P1;PMS_P2;Temp;Humidity;BMP_temperature;BMP_pressure;BME280_temperature;BME280_humidity;BME280_pressure;Samples;Min_cycle;Max_cycle;Signal;HPM_P1;HPM_P2
2022/06/09 00:00:39;;;;;;;4.75;4.35;;;;;;;14.08;100.00;99950.66;4815219;29;20116;-82
2022/06/09 00:03:11;;;;;;;6.10;5.50;;;;;;;14.09;100.00;99943.53;4832713;29;20064;-82
2022/06/09 00:05:38;;;;;;;6.25;5.65;;;;;;;14.12;100.00;99951.34;4830006;29;20503;-82
2022/06/09 00:08:06;;;;;;;5.97;5.38;;;;;;;14.17;100.00;99940.53;4831852;29;20068;-81
2022/06/09 00:10:36;;;;;;;5.70;5.20;;;;;;;14.24;100.00;99942.81;4830135;29;20065;-81
2022/06/09 00:13:03;;;;;;;6.32;5.72;;;;;;;14.31;100.00;99941.59;4821248;29;20520;-82
2022/06/09 00:15:31;;;;;;;8.27;5.97;;;;;;;14.28;100.00;99943.53;4833844;29;20056;-82
2022/06/09 00:17:58;;;;;;;6.13;5.53;;;;;;;14.26;100.00;99946.25;4842725;29;20056;-82
2022/06/09 00:20:25;;;;;;;6.03;5.43;;;;;;;14.30;100.00;99952.31;4848241;29;20590;-82
2022/06/09 00:22:51;;;;;;;7.15;5.32;;;;;;;14.32;100.00;99940.66;4834931;29;20499;-82
2022/06/09 00:25:18;;;;;;;6.18;5.60;;;;;;;14.31;100.00;99944.25;4863906;29;20056;-82
2022/06/09 00:27:45;;;;;;;6.38;5.53;;;;;;;14.33;100.00;99942.41;4849739;29;20049;-82
2022/06/09 00:30:14;;;;;;;6.45;5.63;;;;;;;14.42;100.00;99945.56;4869608;29;20041;-82
2022/06/09 00:32:41;;;;;;;6.18;5.53;;;;;;;14.45;100.00;99948.94;4839783;29;20053;-82
2022/06/09 00:35:08;;;;;;;6.60;6.00;;;;;;;14.41;100.00;99949.16;4826315;29;20103;-82
2022/06/09 00:37:35;;;;;;;6.07;5.50;;;;;;;14.48;100.00;99943.50;4813667;29;20604;-82
2022/06/09 00:40:04;;;;;;;6.72;5.97;;;;;;;14.47;100.00;99939.13;4813543;29;20045;-82
2022/06/09 00:42:33;;;;;;;6.10;5.50;;;;;;;14.56;100.00;99946.66;4855279;29;20050;-82
2022/06/09 00:45:22;;;;;;;6.78;6.18;;;;;;;14.54;100.00;99950.28;4832559;29;20102;-81
2022/06/09 00:47:49;;;;;;;6.03;5.35;;;;;;;14.52;100.00;99950.38;4829145;29;20145;-82
2022/06/09 00:50:17;;;;;;;6.00;5.50;;;;;;;14.53;100.00;99949.44;4819756;29;20045;-82
2022/06/09 00:52:47;;;;;;;6.30;5.70;;;;;;;14.54;100.00;99945.84;4828429;29;20049;-82
2022/06/09 00:55:20;;;;;;;5.47;4.97;;;;;;;14.57;100.00;99945.72;4827048;29;20041;-82
2022/06/09 00:57:52;;;;;;;6.15;5.55;;;;;;;14.59;100.00;99938.53;4826491;29;20038;-83
2022/06/09 01:00:22;;;;;;;6.18;5.32;;;;;;;14.65;100.00;99945.34;4831060;29;20045;-82
2022/06/09 01:02:51;;;;;;;6.13;5.13;;;;;;;14.79;100.00;99936.66;4840699;29;20048;-82
2022/06/09 01:05:21;;;;;;;6.28;5.70;;;;;;;14.81;100.00;99933.03;4845457;29;20045;-81
2022/06/09 01:07:52;;;;;;;5.80;5.30;;;;;;;14.87;100.00;99935.34;4828742;29;20054;-82
2022/06/09 01:10:18;;;;;;;5.72;5.22;;;;;;;14.89;100.00;99940.63;4823069;29;20049;-82
2022/06/09 01:12:47;;;;;;;5.40;4.90;;;;;;;14.88;100.00;99941.53;4846837;29;20059;-82
2022/06/09 01:15:20;;;;;;;5.60;5.10;;;;;;;14.90;100.00;99937.88;4828564;29;20103;-83
2022/06/09 01:18:07;;;;;;;5.38;4.88;;;;;;;14.95;100.00;99934.97;4826777;29;20488;-84
2022/06/09 01:20:41;;;;;;;5.82;5.32;;;;;;;15.01;100.00;99942.66;4852701;29;20049;-82
2022/06/09 01:23:07;;;;;;;;;;;;;;;15.07;100.00;99946.81;4878661;24;20052;-84
2022/06/09 11:37:00;;;;;;;2.63;2.38;;;;;;;20.60;77.97;100430.59;4905702;29;20032;-95
2022/06/09 11:39:46;;;;;;;3.08;2.80;;;;;;;20.61;77.52;100422.44;4870686;29;20049;-80
2022/06/09 11:42:29;;;;;;;2.80;2.38;;;;;;;20.66;78.21;100431.03;4857073;29;20049;-80
2022/06/09 11:44:59;;;;;;;2.40;2.20;;;;;;;20.64;78.49;100432.97;4875553;29;20036;-80
2022/06/09 11:47:28;;;;;;;15.07;3.90;;;;;;;20.76;78.00;100434.84;4879450;29;20132;-80
2022/06/09 11:50:01;;;;;;;3.17;2.75;;;;;;;20.91;75.04;100421.34;4869361;29;20399;-81
2022/06/09 11:52:35;;;;;;;2.50;2.30;;;;;;;20.96;75.71;100427.28;4859053;29;20072;-81
2022/06/09 11:55:06;;;;;;;4.55;2.80;;;;;;;21.10;73.24;100427.19;4857763;29;20422;-81
2022/06/09 11:57:46;;;;;;;3.30;3.00;;;;;;;20.89;75.13;100431.34;4892242;29;20052;-81
2022/06/09 12:00:19;;;;;;;7.15;2.83;;;;;;;21.08;74.60;100426.44;4859667;29;20041;-81
2022/06/09 12:03:18;;;;;;;3.05;2.50;;;;;;;21.21;73.90;100432.72;4860674;29;20048;-82
2022/06/09 12:05:57;;;;;;;3.00;2.50;;;;;;;21.32;72.17;100427.50;4850059;29;20116;-80
2022/06/09 12:08:31;;;;;;;3.10;2.65;;;;;;;21.20;70.87;100433.69;4879579;29;20092;-81
2022/06/09 12:11:18;;;;;;;2.88;2.38;;;;;;;20.92;72.36;100440.03;4878050;29;20120;-81
2022/06/09 12:14:09;;;;;;;3.28;2.47;;;;;;;21.05;73.96;100440.09;4858921;29;20049;-81
2022/06/09 12:17:16;;;;;;;5.85;3.30;;;;;;;21.15;71.02;100443.03;4877188;29;20053;-81
2022/06/09 12:19:59;;;;;;;4.07;2.42;;;;;;;20.97;72.77;100440.63;4872271;29;20037;-81
2022/06/09 12:22:41;;;;;;;4.05;2.90;;;;;;;21.11;73.62;100434.31;4870747;29;20048;-81
2022/06/09 12:25:07;;;;;;;4.38;2.70;;;;;;;21.27;72.25;100437.72;4861785;29;20171;-79
2022/06/09 12:27:37;;;;;;;2.95;2.65;;;;;;;21.39;71.43;100440.53;4871621;29;20045;-80
2022/06/09 12:30:03;;;;;;;4.53;3.00;;;;;;;21.19;72.39;100440.03;4869319;29;20063;-81
2022/06/09 12:32:39;;;;;;;4.22;2.83;;;;;;;21.33;71.42;100437.28;4868344;29;20049;-81
2022/06/09 12:35:25;;;;;;;3.92;2.65;;;;;;;21.40;71.09;100439.56;4869168;29;20875;-82
2022/06/09 12:38:03;;;;;;;3.53;2.90;;;;;;;21.48;69.69;100443.44;4850641;29;20045;-81
2022/06/09 12:40:38;;;;;;;3.28;2.92;;;;;;;21.60;69.95;100442.56;4855473;29;20041;-82
2022/06/09 12:43:32;;;;;;;2.90;2.65;;;;;;;21.71;69.63;100447.22;4879342;29;20052;-82
2022/06/09 12:46:01;;;;;;;3.97;2.80;;;;;;;21.87;68.59;100449.69;4844475;29;20191;-82
2022/06/09 12:48:34;;;;;;;3.30;2.80;;;;;;;21.95;69.68;100454.53;4873086;29;20069;-81
2022/06/09 12:51:04;;;;;;;5.75;3.00;;;;;;;21.99;68.92;100456.00;4878871;29;20037;-82
2022/06/09 12:53:54;;;;;;;3.25;2.80;;;;;;;22.03;72.56;100462.88;4863126;29;20076;-82
2022/06/09 12:56:40;;;;;;;4.53;3.55;;;;;;;21.99;70.29;100462.25;4875067;29;20048;-82
2022/06/09 12:59:25;;;;;;;3.13;2.75;;;;;;;21.98;71.20;100460.53;4862896;29;20036;-82
2022/06/09 13:02:02;;;;;;;7.13;3.40;;;;;;;22.19;70.53;100464.41;4847843;29;20076;-83
2022/06/09 13:04:31;;;;;;;3.63;3.22;;;;;;;22.45;68.80;100464.38;4861602;29;20040;-83
2022/06/09 13:07:00;;;;;;;3.53;2.80;;;;;;;22.57;67.39;100466.16;4876876;29;20037;-81
2022/06/09 13:09:31;;;;;;;3.33;2.75;;;;;;;22.59;66.13;100461.50;4858091;29;20037;-81
2022/06/09 13:15:05;;;;;;;3.00;2.80;;;;;;;22.80;67.09;100464.47;4896885;29;20494;-82
2022/06/09 13:17:35;;;;;;;3.92;3.13;;;;;;;22.63;66.20;100465.72;4866847;29;20072;-82
2022/06/09 13:20:07;;;;;;;3.67;2.75;;;;;;;22.80;65.05;100468.97;4871912;29;20535;-83
2022/06/09 13:22:34;;;;;;;4.00;2.78;;;;;;;22.72;65.46;100464.16;4890730;29;20048;-83
2022/06/09 13:25:01;;;;;;;3.47;3.17;;;;;;;22.71;65.43;100467.84;4890171;29;20048;-81
2022/06/09 13:27:31;;;;;;;3.05;2.75;;;;;;;22.77;65.21;100465.53;4863501;29;20041;-84
2022/06/09 13:30:05;;;;;;;3.00;2.42;;;;;;;22.77;66.36;100470.06;4857396;29;20048;-83
2022/06/09 13:32:44;;;;;;;3.92;2.80;;;;;;;23.07;66.50;100464.25;4875457;29;20060;-83
2022/06/09 13:35:26;;;;;;;4.15;3.00;;;;;;;23.33;62.39;100470.34;4875926;29;20105;-83
2022/06/09 13:38:17;;;;;;;4.65;3.00;;;;;;;23.39;62.42;100461.78;4859822;29;20083;-84
2022/06/09 13:40:51;;;;;;;3.30;3.00;;;;;;;22.93;61.24;100470.66;4873662;29;20140;-83
2022/06/09 13:43:27;;;;;;;4.20;2.92;;;;;;;22.89;62.75;100471.03;4866791;29;20045;-82
2022/06/09 13:46:08;;;;;;;72.85;10.73;;;;;;;22.74;63.92;100467.59;4868429;29;20040;-84
2022/06/09 13:49:02;;;;;;;6.00;3.15;;;;;;;23.18;62.64;100468.81;4858929;29;20053;-82
2022/06/09 13:52:03;;;;;;;3.60;2.75;;;;;;;23.28;64.20;100470.69;4875424;29;20057;-82
2022/06/09 13:54:40;;;;;;;4.10;3.05;;;;;;;23.35;61.64;100470.22;4868274;29;20057;-82
2022/06/09 13:57:17;;;;;;;3.75;3.45;;;;;;;23.28;62.63;100472.50;4872278;29;20077;-82
2022/06/09 13:59:52;;;;;;;3.55;3.00;;;;;;;23.31;60.61;100480.38;4856016;29;20055;-83
2022/06/09 14:02:27;;;;;;;3.78;2.58;;;;;;;23.06;60.36;100484.09;4890713;29;20041;-83
2022/06/09 14:04:55;;;;;;;3.92;3.22;;;;;;;22.84;59.54;100492.88;4859288;29;20040;-83
2022/06/09 14:07:25;;;;;;;3.63;2.90;;;;;;;22.95;59.75;100484.91;4887423;29;20045;-83
2022/06/09 14:09:52;;;;;;;3.60;2.97;;;;;;;23.14;59.68;100489.75;4846487;29;20499;-82
2022/06/09 14:12:22;;;;;;;3.50;3.03;;;;;;;23.15;60.96;100483.38;4859185;29;20464;-83
2022/06/09 14:14:49;;;;;;;4.35;3.70;;;;;;;23.23;60.96;100489.06;4848332;29;20044;-83
2022/06/09 14:17:24;;;;;;;4.43;3.53;;;;;;;23.18;59.08;100501.16;4861846;29;20048;-83
2022/06/09 14:19:51;;;;;;;6.68;3.45;;;;;;;23.27;59.43;100497.75;4860537;29;20052;-84
2022/06/09 14:22:19;;;;;;;5.57;3.03;;;;;;;23.14;58.61;100495.16;4855967;29;20426;-82
2022/06/09 14:24:46;;;;;;;22.98;6.28;;;;;;;23.19;60.41;100509.13;4877252;29;20077;-85
2022/06/09 14:27:13;;;;;;;3.50;3.20;;;;;;;23.24;59.98;100501.56;4859197;29;20045;-83
2022/06/09 14:29:40;;;;;;;4.63;3.33;;;;;;;23.18;59.38;100512.78;4876651;29;20081;-82
2022/06/09 14:32:16;;;;;;;4.70;3.67;;;;;;;23.11;58.67;100507.97;4865683;29;20048;-83
2022/06/09 14:34:43;;;;;;;7.07;3.83;;;;;;;23.03;60.41;100511.25;4880887;29;20051;-82
2022/06/09 14:37:14;;;;;;;3.80;3.20;;;;;;;22.95;60.02;100513.66;4866806;29;20036;-84
2022/06/09 14:39:41;;;;;;;4.15;2.90;;;;;;;22.90;60.51;100514.00;4866114;29;20131;-81
2022/06/09 14:42:15;;;;;;;4.60;3.35;;;;;;;22.80;61.56;100512.94;4882345;29;20037;-83
2022/06/09 14:44:42;;;;;;;;;;;;;;;22.76;61.51;100511.44;4881359;29;20072;-82
2022/06/09 14:47:14;;;;;;;5.57;3.58;;;;;;;22.67;62.31;100518.34;4851363;29;20018;-82
2022/06/09 14:49:41;;;;;;;4.57;3.20;;;;;;;22.63;61.43;100511.47;4865278;29;20087;-83
2022/06/09 14:52:11;;;;;;;5.03;3.20;;;;;;;22.58;62.18;100513.63;4866781;29;20048;-82
2022/06/09 14:54:38;;;;;;;3.42;2.90;;;;;;;22.59;60.92;100520.75;4877360;29;20525;-83
2022/06/09 14:57:15;;;;;;;4.15;2.90;;;;;;;22.44;62.03;100529.91;4865604;29;20044;-82
2022/06/09 14:59:42;;;;;;;3.47;3.00;;;;;;;22.33;62.11;100528.00;4854158;29;20498;-82
2022/06/09 15:02:15;;;;;;;3.70;3.17;;;;;;;22.20;63.71;100529.88;4854964;29;20108;-83
2022/06/09 15:04:42;;;;;;;3.30;2.72;;;;;;;22.13;64.36;100539.34;4876057;29;20589;-82
2022/06/09 15:07:14;;;;;;;3.72;3.42;;;;;;;22.02;64.61;100536.47;4862107;29;20410;-81
2022/06/09 15:09:42;;;;;;;5.88;3.15;;;;;;;21.81;64.51;100534.34;4851186;29;20087;-81
2022/06/09 15:12:10;;;;;;;6.28;3.42;;;;;;;22.00;64.97;100541.13;4846813;29;20059;-81
2022/06/09 15:14:37;;;;;;;4.93;3.05;;;;;;;21.91;66.31;100531.88;4871428;29;20048;-83
2022/06/09 15:17:06;;;;;;;4.28;2.85;;;;;;;21.71;67.01;100532.41;4860467;29;20583;-84
2022/06/09 15:19:34;;;;;;;3.90;3.53;;;;;;;21.67;66.50;100547.00;4855080;29;20168;-82
2022/06/09 15:22:00;;;;;;;4.10;3.20;;;;;;;21.74;68.60;100542.94;4859248;29;20072;-82
2022/06/09 15:24:27;;;;;;;3.47;2.95;;;;;;;21.62;66.27;100544.66;4860790;29;20049;-81
2022/06/09 15:26:54;;;;;;;8.20;3.85;;;;;;;21.49;66.98;100541.06;4858321;29;20072;-83
2022/06/09 15:29:21;;;;;;;5.38;3.63;;;;;;;21.53;67.79;100546.13;4868249;29;20048;-83
2022/06/09 15:31:48;;;;;;;3.45;3.03;;;;;;;21.46;68.30;100538.59;4869874;29;20065;-83
2022/06/09 15:34:21;;;;;;;4.90;3.28;;;;;;;21.35;67.57;100541.97;4842926;29;20052;-83
2022/06/09 15:36:50;;;;;;;3.17;2.88;;;;;;;21.37;69.71;100544.59;4857317;29;20051;-82
2022/06/09 15:39:17;;;;;;;3.78;3.15;;;;;;;21.39;69.82;100542.66;4848869;29;20048;-83
2022/06/09 15:41:45;;;;;;;3.92;3.22;;;;;;;21.28;68.63;100546.91;4859471;29;20803;-84
2022/06/09 15:44:12;;;;;;;3.47;3.13;;;;;;;21.28;69.64;100546.91;4855235;29;20049;-82
2022/06/09 15:46:39;;;;;;;5.18;3.47;;;;;;;21.32;68.10;100548.41;4856486;29;20059;-81
2022/06/09 15:49:25;;;;;;;6.65;3.90;;;;;;;21.24;68.25;100542.66;4866689;29;20036;-82
2022/06/09 15:51:52;;;;;;;6.13;4.00;;;;;;;21.31;68.99;100549.38;4884333;29;20040;-81
2022/06/09 15:54:19;;;;;;;4.63;3.40;;;;;;;21.44;69.33;100545.88;4880874;29;20045;-81
2022/06/09 15:56:45;;;;;;;3.40;3.08;;;;;;;21.47;68.22;100545.69;4872506;29;20043;-82
2022/06/09 15:59:13;;;;;;;4.03;3.38;;;;;;;21.47;68.23;100543.84;4855432;29;20057;-80
2022/06/09 16:01:39;;;;;;;82.05;14.18;;;;;;;21.45;68.70;100542.25;4887246;29;20404;-82
2022/06/09 16:04:06;;;;;;;5.90;4.20;;;;;;;21.56;67.72;100547.75;4882093;29;20060;-81
2022/06/09 16:06:33;;;;;;;15.02;5.03;;;;;;;21.60;65.20;100547.41;4882316;29;20040;-80
2022/06/09 16:09:04;;;;;;;9.60;3.58;;;;;;;21.70;65.47;100554.88;4890448;29;20041;-81
2022/06/09 16:11:31;;;;;;;4.75;3.60;;;;;;;21.81;65.26;100550.47;4846640;29;20147;-82
2022/06/09 16:13:58;;;;;;;4.07;3.00;;;;;;;21.80;64.23;100554.13;4861814;29;20045;-83
2022/06/09 16:16:24;;;;;;;3.63;3.00;;;;;;;21.90;63.42;100555.22;4878887;29;20127;-82
2022/06/09 16:18:51;;;;;;;3.40;3.10;;;;;;;21.93;63.32;100555.00;4879884;29;20045;-81
2022/06/09 16:21:18;;;;;;;3.90;3.20;;;;;;;21.93;63.07;100559.50;4871885;29;20048;-80
2022/06/09 16:23:45;;;;;;;3.75;3.35;;;;;;;21.86;63.91;100561.78;4849128;29;20594;-81
2022/06/09 16:26:15;;;;;;;4.45;3.10;;;;;;;21.79;63.74;100565.88;4860340;29;20077;-82
2022/06/09 16:28:42;;;;;;;3.35;3.05;;;;;;;21.73;64.90;100574.34;4849709;29;20044;-81
2022/06/09 16:31:08;;;;;;;3.67;3.38;;;;;;;21.74;62.80;100580.56;4863846;29;20053;-83
2022/06/09 16:33:35;;;;;;;4.13;3.50;;;;;;;21.69;64.70;100580.00;4853187;29;20453;-82
2022/06/09 16:36:02;;;;;;;3.97;3.20;;;;;;;21.57;65.28;100573.66;4857296;29;20117;-82
2022/06/09 16:38:29;;;;;;;3.83;3.22;;;;;;;21.58;64.41;100586.13;4851777;29;20043;-82
2022/06/09 16:40:55;;;;;;;4.03;3.63;;;;;;;21.56;64.16;100588.94;4865363;29;20048;-83
2022/06/09 16:43:22;;;;;;;4.00;3.30;;;;;;;21.51;65.28;100588.34;4837246;29;20040;-82
2022/06/09 16:45:49;;;;;;;3.63;3.17;;;;;;;21.34;64.94;100594.00;4882864;29;20048;-82
2022/06/09 16:48:17;;;;;;;3.85;3.45;;;;;;;21.37;66.28;100598.34;4856536;29;20124;-82
2022/06/09 16:50:44;;;;;;;4.00;3.25;;;;;;;21.27;67.09;100604.31;4852890;29;21464;-81
2022/06/09 16:53:12;;;;;;;6.03;4.07;;;;;;;21.32;66.34;100612.06;4867728;29;20147;-82
2022/06/09 16:55:39;;;;;;;5.22;3.45;;;;;;;21.22;66.29;100608.22;4854207;29;20051;-80
2022/06/09 16:58:06;;;;;;;4.18;3.78;;;;;;;21.19;67.17;100620.03;4859543;29;20074;-81
2022/06/09 17:00:37;;;;;;;6.70;3.50;;;;;;;21.14;65.89;100621.28;4868116;29;20052;-81
2022/06/09 17:03:11;;;;;;;4.82;3.53;;;;;;;21.04;64.99;100629.94;4863459;29;20139;-81
2022/06/09 17:05:42;;;;;;;3.55;3.25;;;;;;;20.98;63.38;100630.34;4875645;29;20040;-81
2022/06/09 17:08:12;;;;;;;3.80;3.25;;;;;;;20.88;65.47;100631.91;4877848;29;20035;-81
2022/06/09 17:10:40;;;;;;;4.13;3.40;;;;;;;20.79;64.79;100641.41;4867847;29;20032;-81
2022/06/09 17:13:08;;;;;;;6.07;3.45;;;;;;;20.79;65.91;100640.53;4855270;29;20048;-81
2022/06/09 17:15:38;;;;;;;3.63;3.22;;;;;;;20.72;67.42;100649.94;4847938;29;20077;-81
2022/06/09 17:18:06;;;;;;;3.55;3.25;;;;;;;20.72;66.03;100648.09;4878813;29;20230;-81
2022/06/09 17:20:37;;;;;;;4.38;3.45;;;;;;;20.68;65.14;100659.13;4866488;29;20126;-80
2022/06/09 17:23:06;;;;;;;3.13;2.83;;;;;;;20.70;67.10;100657.22;4874581;29;20045;-81
2022/06/09 17:25:36;;;;;;;4.00;3.45;;;;;;;20.72;66.97;100655.31;4856340;29;20049;-80
2022/06/09 17:28:04;;;;;;;4.05;3.10;;;;;;;20.56;65.96;100662.59;4869152;29;20040;-80
2022/06/09 17:30:30;;;;;;;3.28;2.97;;;;;;;20.50;66.90;100659.31;4850730;29;20048;-80
2022/06/09 17:33:04;;;;;;;4.23;3.77;;;;;;;20.46;68.56;100664.97;4882542;29;20455;-80
2022/06/09 17:35:32;;;;;;;3.83;2.95;;;;;;;20.42;67.15;100666.06;4876771;29;20292;-80
2022/06/09 17:37:59;;;;;;;5.50;3.40;;;;;;;20.47;65.42;100664.88;4860079;29;20045;-80
2022/06/09 17:40:26;;;;;;;3.92;3.35;;;;;;;20.54;67.79;100668.06;4861358;29;20579;-81
2022/06/09 17:42:57;;;;;;;3.10;2.80;;;;;;;20.44;69.41;100673.13;4872927;29;20049;-80
2022/06/09 17:45:24;;;;;;;4.05;3.25;;;;;;;20.52;72.41;100680.72;4875898;29;20040;-80
2022/06/09 17:47:52;;;;;;;3.30;3.00;;;;;;;20.44;71.08;100685.69;4879954;29;20048;-80
2022/06/09 17:50:29;;;;;;;3.67;3.00;;;;;;;20.46;69.74;100683.75;4869243;29;20106;-80
2022/06/09 17:52:57;;;;;;;3.63;3.10;;;;;;;20.44;69.00;100689.22;4892094;29;20044;-80
2022/06/09 17:55:26;;;;;;;4.68;3.47;;;;;;;20.44;71.11;100696.41;4861585;29;20048;-80
2022/06/09 17:57:54;;;;;;;5.03;3.40;;;;;;;20.42;72.48;100698.28;4875618;29;20293;-80
2022/06/09 18:00:29;;;;;;;5.18;3.20;;;;;;;20.43;72.70;100702.69;4894562;29;20053;-80
2022/06/09 18:02:55;;;;;;;4.35;3.40;;;;;;;20.34;73.72;100711.28;4875728;29;20064;-80
2022/06/09 18:05:23;;;;;;;3.25;2.78;;;;;;;20.24;73.69;100714.53;4884077;29;20463;-81
2022/06/09 18:07:51;;;;;;;4.75;3.33;;;;;;;20.22;73.70;100715.59;4882510;29;20045;-80
2022/06/09 18:10:25;;;;;;;3.15;2.85;;;;;;;20.11;75.01;100718.06;4865650;29;20112;-80
2022/06/09 18:12:56;;;;;;;4.18;3.20;;;;;;;20.04;76.05;100716.69;4877821;29;20048;-81
2022/06/09 18:15:32;;;;;;;3.97;3.40;;;;;;;20.00;76.82;100724.03;4876707;29;20050;-81
2022/06/09 18:18:00;;;;;;;4.25;3.40;;;;;;;19.96;75.65;100725.16;4870143;29;20041;-81
2022/06/09 18:20:28;;;;;;;5.50;3.65;;;;;;;19.99;75.75;100729.47;4869602;29;20048;-81
2022/06/09 18:22:54;;;;;;;3.30;3.00;;;;;;;19.90;76.15;100730.88;4866101;29;20129;-81
2022/06/09 18:25:23;;;;;;;4.63;3.50;;;;;;;19.90;73.17;100733.56;4891045;29;20419;-81
2022/06/09 18:27:51;;;;;;;3.78;3.42;;;;;;;19.84;74.37;100737.47;4893908;29;20088;-80
2022/06/09 18:30:18;;;;;;;3.80;3.42;;;;;;;19.83;76.00;100740.22;4851776;29;20084;-81
2022/06/09 18:32:45;;;;;;;5.05;3.47;;;;;;;19.82;78.64;100743.88;4856741;29;20045;-80
2022/06/09 18:35:12;;;;;;;5.93;3.42;;;;;;;19.77;78.82;100748.66;4845110;29;20184;-81
2022/06/09 18:37:39;;;;;;;4.60;3.50;;;;;;;19.68;77.50;100748.22;4864719;29;20047;-81
2022/06/09 18:40:09;;;;;;;4.35;3.40;;;;;;;19.65;76.85;100753.72;4863815;29;20048;-80
2022/06/09 18:42:40;;;;;;;5.07;3.42;;;;;;;19.58;76.76;100752.34;4865288;29;20056;-81
2022/06/09 18:45:08;;;;;;;3.50;3.20;;;;;;;19.47;77.79;100762.78;4846626;29;20053;-80
2022/06/09 18:47:35;;;;;;;4.82;3.58;;;;;;;19.46;78.72;100768.22;4861492;29;20060;-81
2022/06/09 18:50:08;;;;;;;3.80;3.50;;;;;;;19.38;80.45;100771.31;4844504;29;20052;-81
2022/06/09 18:52:36;;;;;;;;;;;;;;;19.34;80.45;100773.31;4867580;29;20044;-80
2022/06/09 18:55:04;;;;;;;4.15;3.75;;;;;;;19.29;81.08;100772.69;4845794;29;20014;-81
2022/06/09 18:57:32;;;;;;;4.20;3.80;;;;;;;19.28;81.45;100770.13;4847894;29;20637;-80
2022/06/09 19:00:07;;;;;;;7.15;3.90;;;;;;;19.26;81.52;100780.06;4874932;29;20043;-80
2022/06/09 19:02:35;;;;;;;3.92;3.63;;;;;;;19.18;83.42;100783.16;4860115;29;20595;-80
2022/06/09 19:05:02;;;;;;;4.20;3.80;;;;;;;19.12;84.14;100783.47;4872849;29;20051;-81
2022/06/09 19:07:30;;;;;;;6.45;4.70;;;;;;;19.16;79.67;100789.50;4876271;29;20052;-81
2022/06/09 19:09:57;;;;;;;6.25;3.65;;;;;;;19.12;80.36;100781.66;4856912;29;20186;-80
2022/06/09 19:12:45;;;;;;;4.07;3.67;;;;;;;19.15;78.94;100785.97;4862384;29;20400;-80
2022/06/09 19:15:14;;;;;;;4.13;3.72;;;;;;;19.20;79.77;100786.59;4888234;29;20044;-81
2022/06/09 19:17:41;;;;;;;5.47;3.78;;;;;;;19.12;80.74;100784.34;4850054;29;20048;-80
2022/06/09 19:20:09;;;;;;;4.75;3.92;;;;;;;19.05;80.92;100792.78;4858822;29;20049;-81
2022/06/09 19:22:36;;;;;;;5.55;3.90;;;;;;;18.94;82.13;100788.00;4848563;29;20598;-80
2022/06/09 19:25:03;;;;;;;4.03;3.60;;;;;;;18.82;81.35;100786.81;4873616;29;20053;-79
2022/06/09 19:27:30;;;;;;;4.05;3.30;;;;;;;18.72;83.46;100788.25;4857835;29;20044;-80
2022/06/09 19:29:58;;;;;;;4.55;3.78;;;;;;;18.67;81.46;100789.47;4858031;29;20045;-81
2022/06/09 19:32:24;;;;;;;4.55;4.15;;;;;;;18.56;82.71;100801.53;4860173;29;20256;-81
2022/06/09 19:34:54;;;;;;;4.40;4.00;;;;;;;18.39;83.46;100804.19;4861039;29;20048;-81
2022/06/09 19:37:24;;;;;;;3.90;3.50;;;;;;;18.32;84.64;100802.75;4859580;29;20463;-80
2022/06/09 19:39:56;;;;;;;4.15;3.75;;;;;;;18.23;86.25;100805.91;4856662;29;20041;-80
2022/06/09 19:42:23;;;;;;;4.03;3.60;;;;;;;18.10;85.23;100811.00;4861569;29;20053;-81
2022/06/09 19:44:49;;;;;;;4.45;3.80;;;;;;;17.98;85.75;100809.78;4875903;29;20413;-81
2022/06/09 19:47:29;;;;;;;5.80;3.90;;;;;;;17.92;86.19;100820.78;4866420;29;20515;-81
2022/06/09 19:49:56;;;;;;;4.68;4.13;;;;;;;17.80;87.60;100825.84;4846428;29;20052;-81
2022/06/09 19:52:23;;;;;;;4.35;3.95;;;;;;;17.73;88.98;100834.16;4866030;29;20055;-81
2022/06/09 19:54:57;;;;;;;4.60;4.20;;;;;;;17.63;89.99;100838.16;4862115;29;20101;-81
2022/06/09 19:57:26;;;;;;;4.60;4.20;;;;;;;17.55;90.19;100839.47;4854233;29;20100;-82
2022/06/09 19:59:53;;;;;;;4.82;4.03;;;;;;;17.42;90.96;100841.84;4858455;29;20045;-81
2022/06/09 20:02:20;;;;;;;4.20;3.80;;;;;;;17.34;90.84;100857.34;4876143;29;20048;-80
2022/06/09 20:04:47;;;;;;;4.43;4.00;;;;;;;17.23;90.73;100856.94;4876533;29;20421;-81
2022/06/09 20:07:16;;;;;;;4.00;3.55;;;;;;;17.10;91.96;100854.84;4866237;29;20049;-81
2022/06/09 20:09:55;;;;;;;5.47;4.65;;;;;;;17.04;92.98;100860.44;4866316;29;20100;-81
2022/06/09 20:12:37;;;;;;;4.65;4.10;;;;;;;16.97;94.62;100868.78;4862162;29;20771;-83
2022/06/09 20:15:19;;;;;;;5.82;4.72;;;;;;;16.84;95.60;100873.78;4879587;29;20446;-80
2022/06/09 20:17:47;;;;;;;5.78;5.05;;;;;;;16.80;97.17;100874.84;4872072;29;20045;-83
2022/06/09 20:20:26;;;;;;;6.15;5.25;;;;;;;16.67;97.60;100882.47;4847192;29;20040;-82
2022/06/09 20:22:57;;;;;;;5.43;4.93;;;;;;;16.60;97.67;100883.66;4867181;29;20135;-82
2022/06/09 20:25:26;;;;;;;5.32;4.63;;;;;;;16.44;99.46;100894.09;4879423;29;20059;-82
2022/06/09 20:27:59;;;;;;;7.10;4.93;;;;;;;16.34;100.00;100911.41;4856061;29;20057;-82
2022/06/09 20:30:30;;;;;;;5.20;4.57;;;;;;;16.39;100.00;100909.41;4860884;29;20045;-82
2022/06/09 20:33:00;;;;;;;5.47;4.57;;;;;;;16.28;100.00;100907.19;4852587;29;20055;-82
2022/06/09 20:35:27;;;;;;;4.47;4.00;;;;;;;16.12;100.00;100910.50;4844898;29;20740;-82
2022/06/09 20:37:56;;;;;;;5.07;4.05;;;;;;;16.03;100.00;100912.59;4842261;29;20124;-83
2022/06/09 20:40:30;;;;;;;6.80;4.07;;;;;;;15.92;100.00;100906.84;4863149;29;20052;-84
2022/06/09 20:42:58;;;;;;;5.07;3.90;;;;;;;15.85;100.00;100918.66;4878149;29;20044;-84
2022/06/09 20:45:28;;;;;;;4.57;4.10;;;;;;;15.76;100.00;100916.34;4863607;29;20049;-83
2022/06/09 20:47:58;;;;;;;4.78;4.25;;;;;;;15.72;100.00;100914.69;4848790;29;20060;-83
2022/06/09 20:50:29;;;;;;;5.03;3.90;;;;;;;15.60;100.00;100913.34;4863856;29;20041;-83
2022/06/09 20:52:57;;;;;;;4.35;3.95;;;;;;;15.53;100.00;100922.47;4849100;29;20064;-83
2022/06/09 20:55:25;;;;;;;5.10;4.47;;;;;;;15.42;100.00;100919.34;4838950;29;20064;-83
2022/06/09 20:57:52;;;;;;;4.82;4.32;;;;;;;15.43;100.00;100921.09;4864764;29;20156;-83
2022/06/09 21:00:20;;;;;;;4.82;4.10;;;;;;;15.37;100.00;100922.16;4878554;29;20041;-84
2022/06/09 21:02:47;;;;;;;5.13;4.55;;;;;;;15.29;100.00;100931.34;4862486;29;20052;-85
2022/06/09 21:05:15;;;;;;;5.18;4.55;;;;;;;15.26;100.00;100926.16;4867690;29;20049;-84
2022/06/09 21:07:42;;;;;;;7.47;4.57;;;;;;;15.15;100.00;100923.88;4863633;29;20061;-83
2022/06/09 21:18:33;;;;;;;5.22;4.30;;;;;;;14.86;100.00;100939.03;4856342;29;20143;-83
2022/06/09 21:21:01;;;;;;;5.95;4.72;;;;;;;14.84;100.00;100945.34;4848070;29;20047;-83
2022/06/09 21:23:29;;;;;;;5.97;4.75;;;;;;;14.78;100.00;100943.75;4864386;29;20075;-83
2022/06/09 21:25:56;;;;;;;5.50;4.45;;;;;;;14.75;100.00;100940.31;4850365;29;20053;-84
2022/06/09 21:28:23;;;;;;;5.45;4.30;;;;;;;14.74;100.00;100944.78;4831312;29;20053;-83
2022/06/09 21:30:53;;;;;;;6.75;4.95;;;;;;;14.66;100.00;100944.16;4860946;29;20048;-83
2022/06/09 21:33:21;;;;;;;5.90;4.53;;;;;;;14.62;100.00;100959.31;4863977;29;20048;-84
2022/06/09 21:35:48;;;;;;;5.43;4.50;;;;;;;14.54;100.00;100961.34;4847631;29;20048;-84
2022/06/09 21:38:15;;;;;;;7.57;4.90;;;;;;;14.59;100.00;100969.19;4860828;29;20053;-83
2022/06/09 21:40:41;;;;;;;5.55;4.95;;;;;;;14.60;100.00;100969.16;4874879;29;20043;-84
2022/06/09 21:43:09;;;;;;;7.38;5.13;;;;;;;14.57;100.00;100971.91;4851521;29;20048;-84
2022/06/09 21:45:36;;;;;;;4.85;4.30;;;;;;;14.52;100.00;100976.50;4845455;29;20045;-83
2022/06/09 21:48:03;;;;;;;5.15;4.60;;;;;;;14.46;100.00;100974.06;4865865;29;20048;-83
2022/06/09 21:50:31;;;;;;;5.65;5.03;;;;;;;14.37;100.00;100972.50;4879496;29;20187;-84
2022/06/09 21:52:57;;;;;;;6.80;4.80;;;;;;;14.34;100.00;100977.03;4849715;29;20048;-83
2022/06/09 21:55:24;;;;;;;5.07;4.32;;;;;;;14.30;100.00;100975.41;4864086;29;20048;-84
2022/06/09 21:57:51;;;;;;;6.93;4.75;;;;;;;14.29;100.00;100974.53;4848440;29;20059;-83
2022/06/09 22:00:24;;;;;;;6.40;4.78;;;;;;;14.24;100.00;100975.59;4861001;29;20075;-82
2022/06/09 22:02:51;;;;;;;5.43;4.80;;;;;;;14.18;100.00;100970.47;4852550;29;20413;-83